Time;durP1;ratioP1;P1;durP2;ratioP2;P2;SDS_P1;SDS_P2;PMS_P1;PMS_P2;Temp;Humidity;BMP_temperature;BMP_pressure;BME280_temperature;BME280_humidity;BME280_pressure;Samples;Min_cycle;Max_cycle;Signal;HPM_P1;HPM_P2
2021/04/01 00:00:38;;;;;;;53.38;25.08;;;;;;;9.25;68.38;101834.63;5021040;28;20495;-78
2021/04/01 00:03:04;;;;;;;50.53;26.48;;;;;;;9.23;68.52;101836.53;5025173;28;20156;-79
2021/04/01 00:05:30;;;;;;;49.05;23.65;;;;;;;9.22;69.09;101833.09;4996261;28;20044;-79
2021/04/01 00:07:56;;;;;;;44.97;23.60;;;;;;;9.23;69.35;101836.53;5015779;28;20046;-77
2021/04/01 00:10:26;;;;;;;49.13;22.98;;;;;;;9.27;68.98;101830.16;5019953;28;20046;-79
2021/04/01 00:13:02;;;;;;;51.78;24.60;;;;;;;9.27;69.44;101833.59;4982498;28;20446;-80
2021/04/01 00:15:27;;;;;;;46.28;24.80;;;;;;;9.24;67.54;101833.81;4997635;28;20123;-79
2021/04/01 00:17:53;;;;;;;45.95;25.00;;;;;;;9.16;67.79;101836.16;4989759;28;20416;-78
2021/04/01 00:20:19;;;;;;;46.92;23.05;;;;;;;9.12;67.67;101837.31;5006377;28;20061;-79
2021/04/01 00:22:44;;;;;;;45.22;22.92;;;;;;;9.22;69.32;101832.25;4972706;28;20979;-78
2021/04/01 00:25:13;;;;;;;46.63;24.15;;;;;;;9.15;69.87;101827.47;5025873;28;20054;-78
2021/04/01 00:27:39;;;;;;;46.58;23.52;;;;;;;9.14;70.48;101824.97;4983140;28;20052;-79
2021/04/01 00:30:07;;;;;;;45.72;23.90;;;;;;;9.07;70.90;101828.97;4993730;28;20525;-78
2021/04/01 00:32:32;;;;;;;46.10;23.95;;;;;;;9.13;70.97;101829.34;4994161;28;20056;-80
2021/04/01 00:34:58;;;;;;;51.40;25.27;;;;;;;9.23;69.06;101823.44;4995315;28;20132;-79
2021/04/01 00:37:23;;;;;;;47.65;24.52;;;;;;;9.22;68.71;101821.78;5011568;28;20462;-76
2021/04/01 00:39:49;;;;;;;49.47;24.65;;;;;;;9.23;68.43;101818.22;4998955;28;20107;-76
2021/04/01 00:42:15;;;;;;;50.97;23.23;;;;;;;9.24;68.57;101817.28;5009933;28;20783;-81
2021/04/01 00:44:40;;;;;;;49.63;24.65;;;;;;;9.30;68.88;101815.03;4995387;28;20986;-81
2021/04/01 00:47:08;;;;;;;44.13;23.70;;;;;;;9.29;70.03;101820.41;5003639;28;20061;-78
2021/04/01 00:49:36;;;;;;;40.22;21.88;;;;;;;9.21;68.84;101820.97;4996134;28;20080;-79
2021/04/01 00:52:02;;;;;;;46.10;23.55;;;;;;;9.16;68.04;101823.91;5002528;28;20083;-79
2021/04/01 00:54:28;;;;;;;45.78;23.40;;;;;;;9.14;68.06;101823.16;5008641;28;20037;-80
2021/04/01 00:56:53;;;;;;;51.58;25.25;;;;;;;9.12;67.17;101814.59;5008953;28;20041;-78
2021/04/01 00:59:19;;;;;;;45.90;24.17;;;;;;;9.13;67.86;101815.44;4993935;28;20058;-78
2021/04/01 01:01:48;;;;;;;41.97;22.52;;;;;;;9.16;70.03;101804.75;4988177;28;20133;-77
2021/04/01 01:04:15;;;;;;;49.50;23.55;;;;;;;9.19;69.42;101803.69;4977441;28;20048;-78
2021/04/01 01:06:41;;;;;;;45.38;24.50;;;;;;;9.23;70.07;101792.03;4992672;28;20104;-78
2021/04/01 01:09:08;;;;;;;46.53;23.63;;;;;;;9.27;69.20;101794.31;5003042;28;20038;-78
2021/04/01 01:11:36;;;;;;;50.83;25.50;;;;;;;9.34;69.17;101798.16;5011720;28;20092;-79
2021/04/01 01:14:03;;;;;;;43.30;24.35;;;;;;;9.41;70.20;101814.25;4974454;28;20121;-77
2021/04/01 01:16:28;;;;;;;40.58;23.83;;;;;;;9.34;70.92;101813.88;4958184;28;20215;-78
2021/04/01 01:18:54;;;;;;;46.88;23.17;;;;;;;9.29;71.45;101818.63;5002045;28;20152;-79
2021/04/01 01:21:20;;;;;;;41.72;23.65;;;;;;;9.22;70.01;101814.75;5014002;28;20037;-78
2021/04/01 01:23:46;;;;;;;48.88;24.58;;;;;;;9.18;69.03;101812.50;5002015;28;20056;-81
2021/04/01 01:26:13;;;;;;;42.95;23.67;;;;;;;9.16;70.23;101815.22;5010434;28;20042;-78
2021/04/01 01:28:38;;;;;;;40.88;21.98;;;;;;;9.17;70.74;101822.09;5009431;28;20515;-79
2021/04/01 01:31:04;;;;;;;37.25;21.77;;;;;;;9.21;72.00;101814.88;4993071;28;20061;-78
2021/04/01 01:33:39;;;;;;;48.80;23.30;;;;;;;9.22;71.40;101806.91;4994429;28;20501;-81
2021/04/01 01:36:05;;;;;;;44.72;23.48;;;;;;;9.23;71.07;101803.34;4994975;28;20286;-79
2021/04/01 01:38:30;;;;;;;45.67;24.80;;;;;;;9.22;70.45;101803.47;4979518;28;20446;-79
2021/04/01 01:40:56;;;;;;;47.65;23.92;;;;;;;9.23;70.05;101800.75;4990440;28;20392;-80
2021/04/01 01:43:24;;;;;;;47.15;23.67;;;;;;;9.28;70.51;101798.59;5021070;28;20038;-79
2021/04/01 01:45:49;;;;;;;42.92;24.17;;;;;;;9.30;71.45;101791.47;5004289;28;20053;-78
2021/04/01 01:48:15;;;;;;;44.63;24.45;;;;;;;9.33;71.42;101787.81;4979145;28;20056;-80
2021/04/01 01:50:40;;;;;;;45.08;24.48;;;;;;;9.33;71.23;101786.00;4986537;28;20412;-80
2021/04/01 01:53:08;;;;;;;50.90;25.85;;;;;;;9.31;71.46;101792.31;5013134;28;20046;-78
2021/04/01 01:55:35;;;;;;;52.33;28.00;;;;;;;9.28;69.59;101788.13;5002550;28;20415;-78
2021/04/01 01:58:01;;;;;;;57.45;28.63;;;;;;;9.27;68.86;101783.84;5000243;28;20045;-79
2021/04/01 02:00:32;;;;;;;74.70;29.45;;;;;;;9.27;69.21;101790.88;5008008;28;20057;-80
2021/04/01 02:03:01;;;;;;;50.42;26.58;;;;;;;9.28;69.85;101788.13;5010198;28;20508;-80
2021/04/01 02:05:28;;;;;;;53.10;26.63;;;;;;;9.32;70.81;101786.97;5007986;28;20034;-81
2021/04/01 02:07:55;;;;;;;55.55;28.13;;;;;;;9.39;70.30;101779.50;4993428;28;20030;-78
2021/04/01 02:10:45;;;;;;;58.25;27.95;;;;;;;9.30;71.52;101782.78;5007781;28;20067;-78
2021/04/01 02:13:14;;;;;;;55.88;28.80;;;;;;;9.24;70.49;101785.84;4966009;28;20065;-77
2021/04/01 02:15:42;;;;;;;54.05;28.20;;;;;;;9.20;71.19;101787.03;4996594;28;20137;-77
2021/04/01 02:18:16;;;;;;;52.97;29.00;;;;;;;9.18;70.36;101788.94;4984533;28;20053;-79
2021/04/01 02:20:46;;;;;;;63.15;30.55;;;;;;;9.18;70.07;101781.91;5015045;28;20508;-78
2021/04/01 02:23:14;;;;;;;60.88;31.17;;;;;;;9.13;70.07;101791.88;5003442;28;20068;-77
2021/04/01 02:25:41;;;;;;;62.10;30.73;;;;;;;9.14;68.85;101798.78;5001453;28;20042;-78
2021/04/01 02:28:08;;;;;;;58.97;31.00;;;;;;;9.09;69.95;101808.75;5008263;28;20044;-78
2021/04/01 02:30:35;;;;;;;61.50;30.02;;;;;;;9.08;70.52;101815.78;4974609;28;20046;-77
2021/04/01 02:33:02;;;;;;;58.50;29.58;;;;;;;9.08;70.88;101813.16;5020442;28;20042;-77
2021/04/01 02:35:27;;;;;;;61.38;30.52;;;;;;;9.11;71.54;101815.53;4999923;28;20527;-79
2021/04/01 02:37:53;;;;;;;55.35;27.70;;;;;;;9.18;72.79;101817.72;5024145;28;20054;-81
2021/04/01 02:40:20;;;;;;;64.95;31.80;;;;;;;9.22;72.30;101809.53;5013375;28;20106;-79
2021/04/01 02:42:45;;;;;;;57.47;29.88;;;;;;;9.25;71.92;101811.94;5010856;28;20041;-80
2021/04/01 02:45:12;;;;;;;68.20;33.15;;;;;;;9.25;nan;101804.06;5020990;28;20038;-77
2021/04/01 02:47:38;;;;;;;56.50;31.50;;;;;;;9.34;71.82;101798.16;4999967;28;20509;-78
2021/04/01 02:50:06;;;;;;;69.65;35.95;;;;;;;9.50;70.23;101789.19;5001092;28;20128;-80
2021/04/01 02:52:38;;;;;;;70.07;35.70;;;;;;;9.66;70.94;101791.47;5016819;28;20056;-79
2021/04/01 02:55:06;;;;;;;62.58;35.00;;;;;;;9.63;71.24;101794.34;5028957;28;20045;-78
2021/04/01 02:57:31;;;;;;;66.60;34.53;;;;;;;9.52;71.08;101792.50;5013253;28;20077;-78
2021/04/01 02:59:57;;;;;;;57.75;33.58;;;;;;;9.46;72.05;101790.38;5008087;28;20560;-79
2021/04/01 03:02:26;;;;;;;64.95;33.65;;;;;;;9.41;71.57;101788.06;4957544;28;20034;-80
2021/04/01 03:04:53;;;;;;;66.60;35.10;;;;;;;9.40;71.16;101785.56;4975389;28;20099;-78
2021/04/01 03:07:19;;;;;;;62.30;34.22;;;;;;;9.40;70.84;101782.94;4955281;28;20104;-78
2021/04/01 03:09:44;;;;;;;63.63;32.50;;;;;;;9.41;70.88;101772.34;4970806;28;20042;-78
2021/04/01 03:12:10;;;;;;;64.45;33.28;;;;;;;9.42;71.28;101762.72;4991615;28;20118;-79
2021/04/01 03:14:36;;;;;;;68.10;33.70;;;;;;;9.40;71.69;101775.06;5005458;28;20046;-80
2021/04/01 03:17:01;;;;;;;61.60;33.65;;;;;;;9.38;70.95;101776.97;4991446;28;20132;-78
2021/04/01 03:19:27;;;;;;;60.13;32.47;;;;;;;9.37;70.90;101770.09;4993625;28;20045;-78
2021/04/01 03:21:53;;;;;;;65.35;35.03;;;;;;;9.37;70.89;101768.28;5001395;28;20054;-77
2021/04/01 03:24:18;;;;;;;68.22;35.63;;;;;;;9.32;71.38;101773.03;5005228;28;20516;-78
2021/04/01 03:26:44;;;;;;;70.70;34.67;;;;;;;9.28;70.44;101782.88;5008909;28;20092;-78
2021/04/01 03:29:10;;;;;;;73.63;35.63;;;;;;;9.25;70.74;101792.75;5007070;28;20476;-78
2021/04/01 03:31:36;;;;;;;64.72;32.45;;;;;;;9.21;70.70;101786.06;4974963;28;20104;-77
2021/04/01 03:34:01;;;;;;;61.63;33.95;;;;;;;9.20;71.48;101779.19;5003222;28;20054;-75
2021/04/01 03:36:27;;;;;;;63.33;33.33;;;;;;;9.31;71.46;101781.84;5006581;28;20092;-78
2021/04/01 03:38:53;;;;;;;75.13;35.55;;;;;;;9.43;71.21;101759.97;4990038;28;20033;-82
2021/04/01 03:41:19;;;;;;;72.57;35.92;;;;;;;9.48;70.90;101767.50;4989522;28;20056;-78
2021/04/01 03:43:44;;;;;;;72.95;36.67;;;;;;;9.41;71.53;101767.13;4987412;28;20402;-77
2021/04/01 03:46:12;;;;;;;81.72;35.30;;;;;;;9.29;71.71;101774.09;4979423;28;20046;-76
2021/04/01 03:48:37;;;;;;;61.90;31.65;;;;;;;9.35;72.53;101771.03;4978851;28;20075;-79
2021/04/01 03:51:03;;;;;;;67.15;34.85;;;;;;;9.43;72.98;101769.63;5002033;28;20148;-78
2021/04/01 03:53:29;;;;;;;69.93;33.50;;;;;;;9.41;74.27;101777.59;5007023;28;20049;-77
2021/04/01 03:55:54;;;;;;;68.95;34.47;;;;;;;9.40;74.64;101762.84;5007330;28;20053;-77
2021/04/01 04:00:57;;;;;;;69.43;35.88;;;;;;;9.37;73.45;101752.59;5006633;28;20038;-79
2021/04/01 04:08:55;;;;;;;80.20;37.72;;;;;;;9.23;74.04;101782.41;5006654;28;20073;-77
2021/04/01 04:11:29;;;;;;;72.95;36.78;;;;;;;9.14;74.29;101780.47;4973260;28;20091;-78
2021/04/01 04:14:09;;;;;;;75.20;36.17;;;;;;;9.09;74.24;101770.31;4989175;28;20034;-78
2021/04/01 04:16:36;;;;;;;65.18;34.95;;;;;;;9.06;74.55;101770.56;4988071;28;20054;-79
2021/04/01 04:19:02;;;;;;;73.55;37.30;;;;;;;9.09;73.04;101765.06;4972387;28;20218;-77
2021/04/01 04:21:28;;;;;;;70.57;36.15;;;;;;;9.07;72.60;101759.13;5012101;28;20128;-78
2021/04/01 04:23:54;;;;;;;67.95;35.25;;;;;;;9.09;70.70;101748.53;5005826;28;20052;-79
2021/04/01 04:26:21;;;;;;;70.53;37.50;;;;;;;9.12;70.31;101761.41;5000220;28;20479;-77
2021/04/01 04:28:47;;;;;;;66.50;35.35;;;;;;;9.04;70.58;101772.44;4989258;28;20090;-77
2021/04/01 04:31:12;;;;;;;62.13;33.03;;;;;;;8.99;71.69;101781.59;5005769;28;20069;-77
2021/04/01 04:33:38;;;;;;;72.88;36.85;;;;;;;9.11;69.90;101763.19;5006150;28;20166;-77
2021/04/01 04:36:04;;;;;;;70.45;35.72;;;;;;;9.04;69.68;101764.59;5007418;28;20054;-77
2021/04/01 04:38:30;;;;;;;76.97;37.80;;;;;;;9.11;67.17;101762.34;4971342;28;20042;-77
2021/04/01 04:40:57;;;;;;;76.40;37.78;;;;;;;9.28;66.17;101766.34;5010938;28;20420;-77
2021/04/01 04:43:24;;;;;;;84.28;39.95;;;;;;;9.24;64.83;101749.22;5008860;28;20048;-77
2021/04/01 04:45:50;;;;;;;81.28;39.38;;;;;;;9.31;64.75;101751.25;5007110;28;20042;-77
2021/04/01 04:48:15;;;;;;;78.50;39.97;;;;;;;9.39;65.37;101752.47;4994251;28;20057;-81
2021/04/01 04:50:41;;;;;;;81.90;41.65;;;;;;;9.41;65.65;101756.63;4998557;28;20176;-79
2021/04/01 04:53:06;;;;;;;80.40;40.53;;;;;;;9.36;64.38;101750.91;5010439;28;20420;-77
2021/04/01 04:55:32;;;;;;;76.40;41.00;;;;;;;9.39;66.05;101749.84;5006066;28;20554;-79
2021/04/01 05:00:42;;;;;;;73.80;39.50;;;;;;;9.39;65.43;101755.09;5010782;28;20129;-77
2021/04/01 05:05:52;;;;;;;74.47;38.85;;;;;;;9.30;63.43;101749.56;5011071;28;20096;-77
2021/04/01 05:08:18;;;;;;;82.43;42.45;;;;;;;9.25;63.20;101762.19;5005089;28;20755;-77
2021/04/01 05:10:44;;;;;;;79.65;39.67;;;;;;;9.25;66.09;101762.19;5005896;28;20140;-77
2021/04/01 05:13:11;;;;;;;82.65;40.60;;;;;;;9.21;65.20;101760.75;4989193;28;20464;-78
2021/04/01 05:15:40;;;;;;;81.72;41.47;;;;;;;9.15;64.88;101769.88;4976164;28;20119;-77
2021/04/01 05:18:14;;;;;;;81.22;41.35;;;;;;;9.15;66.23;101779.50;4992930;28;20050;-77
2021/04/01 05:20:41;;;;;;;81.07;40.28;;;;;;;9.08;65.67;101776.50;5000713;28;20783;-77
2021/04/01 05:23:14;;;;;;;81.25;40.30;;;;;;;9.05;64.69;101783.75;4995652;28;20044;-77
2021/04/01 05:25:40;;;;;;;77.90;41.08;;;;;;;9.08;66.06;101788.75;4993491;28;20128;-77
2021/04/01 05:28:19;;;;;;;79.32;41.80;;;;;;;9.03;66.48;101786.47;4977083;28;20129;-77
2021/04/01 05:30:45;;;;;;;94.20;45.13;;;;;;;9.10;65.45;101792.09;4976906;28;20519;-77
2021/04/01 05:33:11;;;;;;;85.88;42.50;;;;;;;9.14;64.53;101791.75;5004536;28;20057;-77
2021/04/01 05:35:37;;;;;;;88.45;42.50;;;;;;;9.14;66.13;101775.22;4994874;28;20073;-78
2021/04/01 05:38:03;;;;;;;93.53;43.08;;;;;;;9.19;63.47;101780.94;5020972;28;20069;-78
2021/04/01 05:40:30;;;;;;;95.28;44.65;;;;;;;9.27;62.24;101783.84;4977132;28;20045;-78
2021/04/01 05:42:57;;;;;;;93.78;44.63;;;;;;;9.31;63.17;101776.63;5001241;28;20586;-77
2021/04/01 05:47:58;;;;;;;101.55;44.47;;;;;;;9.51;61.35;101773.34;5007464;28;20057;-78
2021/04/01 06:01:43;;;;;;;92.65;43.10;;;;;;;9.72;60.52;101784.00;5025010;28;20057;-78
2021/04/01 06:06:53;;;;;;;84.72;41.33;;;;;;;9.78;63.67;101793.19;4991979;28;20049;-77
2021/04/01 06:09:21;;;;;;;81.90;41.15;;;;;;;9.78;64.17;101782.72;5007668;28;20117;-80
2021/04/01 06:11:51;;;;;;;94.10;45.47;;;;;;;9.83;64.37;101782.34;4991352;28;20045;-77
2021/04/01 06:14:33;;;;;;;85.95;42.72;;;;;;;9.94;63.71;101785.84;5011945;28;20515;-78
2021/04/01 06:17:04;;;;;;;80.45;43.22;;;;;;;10.05;65.41;101787.63;5008097;28;20046;-80
2021/04/01 06:19:34;;;;;;;89.05;43.92;;;;;;;10.17;65.31;101795.50;5013282;28;20133;-78
2021/04/01 06:22:05;;;;;;;91.95;45.65;;;;;;;10.22;66.26;101777.63;5000080;28;20046;-77
2021/04/01 06:24:38;;;;;;;80.18;41.78;;;;;;;10.19;66.22;101793.59;5005503;28;20042;-78
2021/04/01 06:27:24;;;;;;;86.07;44.03;;;;;;;10.24;66.26;101789.66;4982812;28;20053;-80
2021/04/01 06:30:15;;;;;;;85.97;44.35;;;;;;;10.25;66.48;101795.75;5009038;28;20121;-80
2021/04/01 06:32:52;;;;;;;83.85;42.90;;;;;;;10.26;67.86;101810.53;4986245;28;20038;-77
2021/04/01 06:35:31;;;;;;;91.78;45.75;;;;;;;10.37;66.50;101796.63;4981072;28;20042;-78
2021/04/01 06:41:02;;;;;;;90.65;45.85;;;;;;;10.54;64.34;101801.38;5008563;28;20053;-77
2021/04/01 06:43:41;;;;;;;102.57;48.00;;;;;;;10.59;63.81;101801.88;4970810;28;20050;-80
2021/04/01 06:46:08;;;;;;;97.85;47.80;;;;;;;10.67;60.74;101799.47;5004211;28;20119;-78
2021/04/01 06:51:16;;;;;;;101.75;48.90;;;;;;;10.65;60.94;101803.16;4993890;28;20342;-78
2021/04/01 06:59:00;;;;;;;97.30;47.93;;;;;;;10.60;62.46;101816.63;5007297;28;20073;-79
2021/04/01 07:01:41;;;;;;;105.55;50.10;;;;;;;10.50;62.15;101815.69;4987519;28;20064;-78
2021/04/01 07:04:07;;;;;;;94.78;47.05;;;;;;;10.44;62.34;101800.44;4988504;28;20056;-80
2021/04/01 07:06:39;;;;;;;97.00;48.30;;;;;;;10.33;62.31;101822.25;5002010;28;20050;-74
2021/04/01 07:12:19;;;;;;;101.10;49.95;;;;;;;10.27;61.92;101805.16;5021210;28;20048;-77
2021/04/01 07:14:48;;;;;;;97.10;49.17;;;;;;;10.27;63.33;101799.94;4967409;28;20054;-77
2021/04/01 07:17:39;;;;;;;99.75;48.92;;;;;;;10.28;61.94;101808.63;4991558;28;20053;-78
2021/04/01 07:47:21;;;;;;;115.10;53.80;;;;;;;11.13;59.24;101821.19;5004526;28;20042;-79
2021/04/01 07:49:49;;;;;;;111.97;53.97;;;;;;;11.27;60.22;101810.41;5004751;28;20038;-79
2021/04/01 07:52:25;;;;;;;112.72;54.58;;;;;;;11.44;59.07;101827.44;5006081;28;20183;-78
2021/04/01 07:55:11;;;;;;;107.97;53.83;;;;;;;11.38;60.63;101825.31;5014813;28;20054;-78
2021/04/01 08:01:01;;;;;;;113.72;54.40;;;;;;;11.28;58.22;101834.88;5008937;28;20052;-77
2021/04/01 08:06:23;;;;;;;120.30;56.70;;;;;;;11.57;58.95;101835.13;4997076;28;20042;-77
2021/04/01 08:08:51;;;;;;;112.93;55.50;;;;;;;11.74;59.85;101844.25;5009365;28;20037;-76
2021/04/01 08:11:29;;;;;;;116.20;55.05;;;;;;;11.92;59.31;101841.91;4991783;28;20046;-77
2021/04/01 08:14:11;;;;;;;107.25;54.08;;;;;;;12.01;59.90;101851.66;4998533;28;20054;-78
2021/04/01 08:16:47;;;;;;;106.35;53.33;;;;;;;11.73;59.44;101854.91;5027921;28;20750;-77
2021/04/01 08:19:15;;;;;;;103.45;52.78;;;;;;;11.71;61.11;101867.34;4998289;28;20046;-77
2021/04/01 08:21:47;;;;;;;112.60;52.65;;;;;;;11.56;61.00;101867.63;4987184;28;20084;-79
2021/04/01 08:24:26;;;;;;;105.20;50.97;;;;;;;11.51;62.74;101861.94;5009300;28;20936;-78
2021/04/01 08:27:21;;;;;;;84.45;43.50;;;;;;;11.48;64.05;101857.75;4968314;28;20057;-79
2021/04/01 08:35:26;;;;;;;85.63;42.10;;;;;;;12.01;64.20;101871.88;5022715;28;20045;-79
2021/04/01 08:38:16;;;;;;;80.60;41.83;;;;;;;11.46;64.43;101882.47;5003596;28;20169;-78
2021/04/01 08:40:43;;;;;;;71.72;38.60;;;;;;;11.48;64.55;101877.94;4997385;28;21533;-80
2021/04/01 08:43:50;;;;;;;83.35;40.72;;;;;;;11.62;63.67;101890.78;5012069;28;20049;-77
2021/04/01 08:46:15;;;;;;;85.30;42.13;;;;;;;11.73;63.71;101889.06;4985985;28;20108;-79
2021/04/01 08:48:59;;;;;;;75.90;38.70;;;;;;;11.97;63.28;101894.13;5006787;28;20868;-79
2021/04/01 08:51:59;;;;;;;82.25;38.88;;;;;;;11.85;62.60;101890.69;5001884;28;20077;-78
2021/04/01 08:54:33;;;;;;;77.30;37.17;;;;;;;11.81;63.01;101898.00;4998912;28;20055;-79
2021/04/01 08:57:27;;;;;;;67.45;35.67;;;;;;;11.71;61.47;101885.72;4992923;28;20524;-79
2021/04/01 09:00:07;;;;;;;67.28;35.92;;;;;;;11.73;62.98;101900.41;4977924;28;20058;-78
2021/04/01 09:02:35;;;;;;;74.50;38.15;;;;;;;11.99;62.55;101903.53;4996113;28;20136;-79
2021/04/01 09:05:04;;;;;;;75.63;37.95;;;;;;;11.99;62.58;101902.72;5000166;28;20538;-79
2021/04/01 09:07:37;;;;;;;69.00;36.58;;;;;;;12.34;62.14;101910.28;5015286;28;20099;-80
2021/04/01 09:10:13;;;;;;;71.82;37.38;;;;;;;12.51;60.84;101921.16;5007364;28;20111;-78
2021/04/01 09:12:50;;;;;;;68.15;34.72;;;;;;;12.35;60.38;101929.53;5006552;28;20077;-78
2021/04/01 09:15:22;;;;;;;64.30;35.63;;;;;;;12.10;63.26;101931.59;5014119;28;20156;-79
2021/04/01 09:17:49;;;;;;;63.25;34.30;;;;;;;11.76;62.71;101933.50;4979736;28;20137;-79
2021/04/01 09:20:18;;;;;;;54.22;30.63;;;;;;;11.53;62.49;101941.47;4983822;28;20042;-79
2021/04/01 09:22:46;;;;;;;49.38;27.30;;;;;;;11.22;63.76;101924.69;5010350;28;20143;-76
2021/04/01 09:25:13;;;;;;;47.47;25.05;;;;;;;11.50;64.99;101944.31;4979191;28;20042;-78
2021/04/01 09:28:01;;;;;;;38.13;22.23;;;;;;;11.76;63.73;101929.06;4981323;28;20100;-81
2021/04/01 09:30:27;;;;;;;45.22;23.60;;;;;;;11.89;63.49;101923.66;5000630;28;20033;-80
2021/04/01 09:32:58;;;;;;;46.45;23.42;;;;;;;11.83;62.68;101932.06;5019238;28;20041;-80
2021/04/01 09:35:24;;;;;;;41.53;22.08;;;;;;;11.72;63.52;101932.91;4978428;28;20049;-80
2021/04/01 09:38:00;;;;;;;39.75;20.52;;;;;;;12.01;63.33;101940.25;4978275;28;20042;-78
2021/04/01 09:40:52;;;;;;;35.70;20.27;;;;;;;12.00;62.81;101935.97;4994934;28;20399;-78
2021/04/01 09:43:20;;;;;;;36.33;19.25;;;;;;;11.95;62.88;101938.94;4998674;28;20755;-79
2021/04/01 09:45:48;;;;;;;40.03;20.13;;;;;;;12.25;63.66;101951.34;4978164;28;20046;-78
2021/04/01 09:48:15;;;;;;;37.72;18.73;;;;;;;12.30;61.94;101944.88;4993799;28;20056;-79
2021/04/01 09:50:44;;;;;;;32.42;18.00;;;;;;;12.44;62.42;101947.19;4997350;28;20042;-78
2021/04/01 09:53:18;;;;;;;31.35;17.38;;;;;;;12.58;62.43;101952.13;5007166;28;20076;-79
2021/04/01 09:55:47;;;;;;;31.40;17.38;;;;;;;12.85;62.56;101951.56;4978843;28;20045;-81
2021/04/01 09:58:31;;;;;;;27.30;15.80;;;;;;;13.13;60.52;101946.53;4995760;28;20492;-79
2021/04/01 10:01:26;;;;;;;29.27;15.32;;;;;;;12.95;60.58;101951.59;5012029;28;20100;-78
2021/04/01 10:03:56;;;;;;;26.20;12.38;;;;;;;13.35;60.43;101963.13;5009089;28;20052;-79
2021/04/01 10:06:43;;;;;;;22.80;12.93;;;;;;;13.72;59.73;101954.59;4994258;28;20479;-79
2021/04/01 10:09:12;;;;;;;21.77;11.35;;;;;;;13.86;57.51;101958.63;4975407;28;20076;-79
2021/04/01 10:11:53;;;;;;;24.00;11.20;;;;;;;13.46;59.38;101963.00;4993704;28;20033;-78
2021/04/01 10:14:19;;;;;;;21.20;11.30;;;;;;;12.95;60.17;101958.66;5013706;28;20132;-79
2021/04/01 10:16:55;;;;;;;20.35;10.50;;;;;;;12.58;60.24;101972.31;5023479;28;20120;-78
2021/04/01 10:19:24;;;;;;;20.17;10.57;;;;;;;12.21;63.08;101964.91;4990955;28;20046;-77
2021/04/01 10:21:50;;;;;;;23.77;11.85;;;;;;;11.83;63.38;101964.41;5009738;28;20084;-79
2021/04/01 10:24:27;;;;;;;17.50;10.27;;;;;;;11.80;64.13;101972.53;4978745;28;20530;-79
2021/04/01 10:27:00;;;;;;;23.05;10.82;;;;;;;11.87;65.15;101984.25;4991636;28;20137;-79
2021/04/01 10:29:41;;;;;;;18.48;10.73;;;;;;;11.54;64.89;101987.78;5019040;28;20065;-81
2021/04/01 10:32:08;;;;;;;17.02;9.23;;;;;;;11.16;66.98;101988.19;5020795;28;20068;-78
2021/04/01 10:34:53;;;;;;;17.20;9.05;;;;;;;10.77;69.28;102006.06;5031938;28;20056;-76
2021/04/01 10:37:24;;;;;;;20.73;8.30;;;;;;;10.65;69.50;102006.03;5017971;28;20041;-80
2021/04/01 10:39:51;;;;;;;17.17;7.18;;;;;;;10.43;70.72;102017.28;5014407;28;20073;-80
2021/04/01 10:42:31;;;;;;;18.58;7.47;;;;;;;10.25;71.07;102006.38;4996957;28;20044;-79
2021/04/01 10:45:04;;;;;;;18.83;6.90;;;;;;;10.07;71.67;102018.19;5014306;28;20660;-81
2021/04/01 10:47:36;;;;;;;18.70;7.28;;;;;;;9.92;72.67;102033.25;4993538;28;20714;-80
2021/04/01 10:50:01;;;;;;;16.85;7.72;;;;;;;9.87;73.05;102030.13;4981448;28;20103;-78
2021/04/01 10:52:31;;;;;;;18.15;8.25;;;;;;;9.58;74.24;102040.91;4995562;28;20257;-79
2021/04/01 10:55:00;;;;;;;21.05;8.98;;;;;;;9.44;74.60;102031.41;5009940;28;20504;-82
2021/04/01 10:57:30;;;;;;;24.38;8.70;;;;;;;9.39;74.36;102043.16;4995992;28;20046;-78
2021/04/01 10:59:59;;;;;;;25.75;9.13;;;;;;;9.44;73.62;102044.50;5012705;28;20133;-80
2021/04/01 11:02:34;;;;;;;17.75;8.13;;;;;;;9.47;74.12;102036.41;4993562;28;20104;-81
2021/04/01 11:05:08;;;;;;;18.63;8.13;;;;;;;9.69;74.05;102050.63;4997774;28;20038;-80
2021/04/01 11:07:47;;;;;;;16.05;7.60;;;;;;;9.91;72.81;102050.78;4994148;28;20045;-80
2021/04/01 11:10:22;;;;;;;14.18;5.80;;;;;;;9.93;71.88;102058.53;5029658;28;20550;-79
2021/04/01 11:13:07;;;;;;;13.80;6.20;;;;;;;9.87;71.49;102066.81;5023743;28;20037;-79
2021/04/01 11:15:35;;;;;;;11.57;4.80;;;;;;;9.89;73.23;102055.28;4992938;28;20046;-79
2021/04/01 11:18:05;;;;;;;10.30;4.20;;;;;;;9.79;71.80;102069.16;5001640;28;20141;-79
2021/04/01 11:20:34;;;;;;;8.55;4.53;;;;;;;9.64;71.21;102068.44;5015051;28;20053;-81
2021/04/01 11:23:04;;;;;;;6.18;3.47;;;;;;;9.69;70.02;102071.59;5020934;28;20061;-81
2021/04/01 11:25:30;;;;;;;10.60;3.65;;;;;;;9.16;71.27;102069.13;4979389;28;20555;-80
2021/04/01 11:27:56;;;;;;;7.72;3.35;;;;;;;9.33;71.44;102079.28;5019095;28;20046;-79
2021/04/01 11:30:38;;;;;;;5.35;3.22;;;;;;;9.46;71.40;102070.59;4993296;28;20038;-79
2021/04/01 11:33:05;;;;;;;7.20;3.10;;;;;;;9.51;70.87;102071.94;5014508;28;20157;-80
2021/04/01 11:35:31;;;;;;;7.03;3.25;;;;;;;9.62;70.28;102076.41;5008492;28;20118;-80
2021/04/01 11:37:57;;;;;;;8.43;3.28;;;;;;;9.49;70.91;102084.31;5020451;28;20041;-79
2021/04/01 11:40:23;;;;;;;7.90;3.40;;;;;;;9.50;70.90;102083.34;4998051;28;20084;-80
2021/04/01 11:42:54;;;;;;;8.52;3.20;;;;;;;9.62;71.41;102086.88;4998194;28;20034;-80
2021/04/01 11:45:30;;;;;;;7.88;3.60;;;;;;;9.70;70.25;102070.63;5018980;28;20046;-81
2021/04/01 11:47:56;;;;;;;8.63;3.53;;;;;;;9.91;69.38;102082.22;5005901;28;23068;-79
2021/04/01 11:50:22;;;;;;;8.35;3.55;;;;;;;10.19;67.61;102079.38;4991675;28;20057;-79
2021/04/01 11:52:54;;;;;;;11.18;3.40;;;;;;;10.56;67.08;102080.19;5012345;28;20057;-80
2021/04/01 11:55:20;;;;;;;7.67;2.90;;;;;;;11.44;66.39;102070.94;5006786;28;20098;-81
2021/04/01 11:57:46;;;;;;;9.07;3.13;;;;;;;11.84;62.24;102087.00;5029978;28;20037;-80
2021/04/01 12:00:33;;;;;;;5.05;2.90;;;;;;;12.07;60.85;102076.47;4999536;28;20064;-81
2021/04/01 12:05:31;;;;;;;5.28;3.53;;;;;;;11.07;62.73;102079.84;5022788;28;20072;-80
2021/04/01 12:07:58;;;;;;;4.18;2.95;;;;;;;10.81;63.22;102079.22;5022709;28;20152;-78
2021/04/01 12:10:23;;;;;;;6.22;3.13;;;;;;;10.59;63.75;102081.75;4999221;28;20049;-79
2021/04/01 12:12:53;;;;;;;6.20;3.28;;;;;;;11.02;63.63;102071.50;4957274;28;20038;-79
2021/04/01 12:15:48;;;;;;;5.25;2.70;;;;;;;11.87;59.42;102073.63;4991865;28;20069;-80
2021/04/01 12:18:14;;;;;;;4.72;2.58;;;;;;;12.13;57.31;102062.84;4964728;28;20061;-80
2021/04/01 12:20:40;;;;;;;4.18;2.63;;;;;;;11.67;58.62;102082.25;5022422;28;20049;-79
2021/04/01 12:23:08;;;;;;;5.47;2.63;;;;;;;11.59;60.56;102082.03;5004831;28;20057;-78
2021/04/01 12:25:34;;;;;;;7.13;2.72;;;;;;;11.49;59.43;102077.50;4992834;28;20077;-80
2021/04/01 12:28:18;;;;;;;5.47;2.70;;;;;;;11.15;61.82;102094.19;4996514;28;20050;-77
2021/04/01 12:30:49;;;;;;;6.05;2.70;;;;;;;11.09;62.16;102092.84;5010509;28;20046;-79
2021/04/01 12:33:19;;;;;;;3.95;2.88;;;;;;;11.18;62.23;102101.84;5012443;28;20062;-79
2021/04/01 12:36:04;;;;;;;6.22;3.60;;;;;;;11.34;61.80;102098.84;4993955;28;20038;-79
2021/04/01 12:38:33;;;;;;;5.75;3.00;;;;;;;11.55;60.86;102086.69;5022934;28;20136;-80
2021/04/01 12:41:01;;;;;;;4.68;2.90;;;;;;;11.82;59.97;102090.72;4991098;28;20561;-80
2021/04/01 12:43:32;;;;;;;4.65;2.58;;;;;;;12.17;59.78;102087.13;4973916;28;20038;-79
2021/04/01 12:45:58;;;;;;;5.50;3.00;;;;;;;11.96;59.21;102095.75;5004780;28;20065;-80
2021/04/01 12:48:24;;;;;;;4.95;2.60;;;;;;;11.54;58.89;102098.16;5016131;28;20068;-80
2021/04/01 12:50:52;;;;;;;4.20;2.08;;;;;;;11.15;59.71;102096.81;5021040;28;20045;-79
2021/04/01 12:53:22;;;;;;;2.40;1.50;;;;;;;10.54;61.51;102105.69;4989914;28;20053;-79
2021/04/01 12:58:39;;;;;;;2.70;1.60;;;;;;;10.23;64.17;102109.72;5016200;28;20041;-79